Time;durP1;ratioP1;P1;durP2;ratioP2;P2;SDS_P1;SDS_P2;PMS_P1;PMS_P2;Temp;Humidity;BMP_temperature;BMP_pressure;BME280_temperature;BME280_humidity;BME280_pressure;Samples;Min_cycle;Max_cycle;Signal;HPM_P1;HPM_P2
2023/07/10 00:00:04;;;;;;;1.33;0.82;;;14.40;99.90;;;;;;4990898;28;20231;-75
2023/07/10 00:02:35;;;;;;;3.08;0.85;;;14.50;99.90;;;;;;4994244;28;20574;-75
2023/07/10 00:05:14;;;;;;;4.32;0.90;;;14.60;99.90;;;;;;4993302;28;20219;-75
2023/07/10 00:07:48;;;;;;;1.63;0.70;;;14.70;99.90;;;;;;4994500;28;20195;-75
2023/07/10 00:10:22;;;;;;;1.80;0.52;;;14.80;99.90;;;;;;4993087;28;20554;-74
2023/07/10 00:12:53;;;;;;;2.13;0.55;;;14.90;99.90;;;;;;4992874;28;20227;-75
2023/07/10 00:15:25;;;;;;;3.38;0.65;;;15.00;99.90;;;;;;4991639;28;20207;-74
2023/07/10 00:17:57;;;;;;;3.35;0.77;;;15.10;99.90;;;;;;4993386;28;20203;-74
2023/07/10 00:20:29;;;;;;;2.95;0.63;;;15.20;99.90;;;;;;4987501;28;20200;-74
2023/07/10 00:23:05;;;;;;;0.50;0.43;;;15.30;99.90;;;;;;4990469;28;20211;-74
2023/07/10 00:25:37;;;;;;;3.80;0.60;;;15.40;99.90;;;;;;4991605;28;20196;-74
2023/07/10 00:28:16;;;;;;;2.03;1.05;;;15.50;99.90;;;;;;4992376;28;20203;-75
2023/07/10 00:30:48;;;;;;;0.50;0.50;;;15.60;99.90;;;;;;4990664;28;20207;-75
2023/07/10 00:33:20;;;;;;;0.77;0.52;;;15.60;99.90;;;;;;4984072;28;20219;-75
2023/07/10 00:35:51;;;;;;;1.20;0.60;;;15.60;99.90;;;;;;4991863;28;20205;-75
2023/07/10 00:38:28;;;;;;;1.13;0.70;;;15.60;99.90;;;;;;4987659;28;20291;-76
2023/07/10 00:41:02;;;;;;;1.77;0.57;;;15.70;99.90;;;;;;4990106;28;20198;-75
2023/07/10 00:43:40;;;;;;;1.35;0.50;;;15.80;99.90;;;;;;4985425;28;20564;-76
2023/07/10 00:46:16;;;;;;;2.30;0.60;;;15.90;99.90;;;;;;4991155;28;20226;-75
2023/07/10 00:48:50;;;;;;;2.30;0.57;;;16.00;99.90;;;;;;4994082;28;20195;-75
2023/07/10 00:51:26;;;;;;;0.80;0.50;;;16.10;99.90;;;;;;4994089;28;20195;-75
2023/07/10 00:54:02;;;;;;;0.60;0.55;;;16.10;99.90;;;;;;4993816;28;20231;-76
2023/07/10 00:56:41;;;;;;;0.98;0.30;;;16.30;99.90;;;;;;4993085;28;20198;-76
2023/07/10 00:59:26;;;;;;;2.15;0.50;;;16.30;99.90;;;;;;4993113;28;20200;-76
2023/07/10 01:02:21;;;;;;;1.50;0.47;;;16.30;99.90;;;;;;4985915;28;20245;-75
2023/07/10 01:05:00;;;;;;;2.20;0.50;;;16.40;99.90;;;;;;4987276;28;20195;-75
2023/07/10 01:07:37;;;;;;;4.78;0.50;;;16.50;99.90;;;;;;4985470;28;20681;-78
2023/07/10 01:10:13;;;;;;;2.25;0.45;;;16.60;99.90;;;;;;4991941;28;20199;-74
2023/07/10 01:12:46;;;;;;;1.42;0.93;;;16.70;99.90;;;;;;4993767;28;20222;-77
2023/07/10 01:15:18;;;;;;;2.55;0.57;;;16.70;99.90;;;;;;4993851;28;20206;-75
2023/07/10 01:17:50;;;;;;;1.30;0.40;;;16.80;99.90;;;;;;4993848;28;20222;-75
2023/07/10 01:20:41;;;;;;;2.83;0.73;;;16.70;99.90;;;;;;4991458;28;20199;-74
2023/07/10 01:23:14;;;;;;;0.43;0.40;;;16.70;99.90;;;;;;4990600;28;20206;-76
2023/07/10 01:25:50;;;;;;;3.67;1.00;;;16.80;99.90;;;;;;4981203;28;20207;-76
2023/07/10 01:28:23;;;;;;;1.67;0.70;;;16.80;99.90;;;;;;4991431;28;20203;-76
2023/07/10 01:30:56;;;;;;;1.98;0.73;;;16.90;99.90;;;;;;4993621;28;20188;-76
2023/07/10 01:33:32;;;;;;;1.58;0.50;;;17.00;99.90;;;;;;4992789;28;20231;-76
2023/07/10 01:36:05;;;;;;;1.15;0.50;;;16.90;99.90;;;;;;4991283;28;20200;-76
2023/07/10 01:38:41;;;;;;;4.13;1.00;;;17.00;99.90;;;;;;4991874;28;20201;-76
2023/07/10 01:41:25;;;;;;;1.15;0.50;;;17.10;99.90;;;;;;4983109;28;20666;-75
2023/07/10 01:43:56;;;;;;;3.80;1.00;;;17.20;99.90;;;;;;4981740;28;20201;-76
2023/07/10 01:46:29;;;;;;;0.70;0.50;;;17.20;99.90;;;;;;4993877;28;20195;-76
2023/07/10 01:49:02;;;;;;;1.10;0.43;;;17.20;99.90;;;;;;4997587;28;20238;-76
2023/07/10 01:51:34;;;;;;;3.55;0.60;;;17.20;99.90;;;;;;4995193;28;20538;-76
2023/07/10 01:54:07;;;;;;;3.95;0.60;;;17.30;99.90;;;;;;4977553;28;20236;-75
2023/07/10 01:56:39;;;;;;;0.90;0.50;;;17.30;99.90;;;;;;4987850;28;20210;-76
2023/07/10 01:59:10;;;;;;;1.58;0.63;;;17.40;99.90;;;;;;4996955;28;20203;-76
2023/07/10 02:01:41;;;;;;;1.95;0.60;;;17.50;99.90;;;;;;4996853;28;20235;-75
2023/07/10 02:04:12;;;;;;;1.80;0.60;;;17.60;99.90;;;;;;4996085;28;20331;-77
2023/07/10 02:06:43;;;;;;;0.77;0.50;;;17.70;99.90;;;;;;4994364;28;20663;-76
2023/07/10 02:09:16;;;;;;;0.30;0.30;;;17.70;99.90;;;;;;4994000;28;20196;-76
2023/07/10 02:11:48;;;;;;;0.95;0.55;;;17.70;99.90;;;;;;4999677;28;20202;-76
2023/07/10 02:14:19;;;;;;;1.90;0.65;;;17.80;99.90;;;;;;4996741;28;20261;-75
2023/07/10 02:16:50;;;;;;;4.63;0.70;;;17.90;99.90;;;;;;4994721;28;20200;-76
2023/07/10 02:19:23;;;;;;;1.85;0.50;;;18.00;99.90;;;;;;5003643;28;20203;-76
2023/07/10 02:21:54;;;;;;;3.05;0.88;;;18.00;99.90;;;;;;4996656;28;20194;-76
2023/07/10 02:24:27;;;;;;;3.10;0.80;;;18.00;99.90;;;;;;4996764;28;20206;-75
2023/07/10 02:26:58;;;;;;;2.15;0.60;;;18.10;99.90;;;;;;4994573;28;20199;-76
2023/07/10 02:29:29;;;;;;;3.22;0.50;;;18.10;99.90;;;;;;4992923;28;20199;-75
2023/07/10 02:32:01;;;;;;;2.17;0.70;;;18.20;99.90;;;;;;4997145;28;20195;-75
2023/07/10 02:34:32;;;;;;;3.28;0.70;;;18.30;99.90;;;;;;4996425;28;20219;-76
2023/07/10 02:37:04;;;;;;;1.40;0.50;;;18.40;99.90;;;;;;4996834;28;20535;-75
2023/07/10 02:39:37;;;;;;;1.27;0.57;;;18.50;99.90;;;;;;4995984;28;20215;-77
2023/07/10 02:42:08;;;;;;;1.98;0.50;;;18.50;99.90;;;;;;4995124;28;20204;-76
2023/07/10 02:44:39;;;;;;;2.50;0.85;;;18.60;99.90;;;;;;4995612;28;20215;-76
2023/07/10 02:47:10;;;;;;;0.85;0.60;;;18.70;99.90;;;;;;4996215;28;20553;-76
2023/07/10 02:49:41;;;;;;;4.20;0.60;;;18.70;99.90;;;;;;4995792;28;20203;-76
2023/07/10 02:52:12;;;;;;;1.40;0.45;;;18.70;99.90;;;;;;4995076;28;20219;-76
2023/07/10 02:54:46;;;;;;;2.20;0.52;;;18.60;99.90;;;;;;4995094;28;20559;-76
2023/07/10 02:57:17;;;;;;;1.90;0.55;;;18.60;99.90;;;;;;4995013;28;20192;-76
2023/07/10 02:59:49;;;;;;;3.25;0.80;;;18.50;99.90;;;;;;4994145;28;20195;-76
2023/07/10 03:02:23;;;;;;;0.95;0.35;;;18.50;99.90;;;;;;4990795;28;20191;-76
2023/07/10 03:04:54;;;;;;;3.08;0.50;;;18.60;99.90;;;;;;4981499;28;20208;-77
2023/07/10 03:07:25;;;;;;;3.05;0.73;;;18.50;99.90;;;;;;4994237;28;20207;-76
2023/07/10 03:09:58;;;;;;;2.28;0.50;;;18.60;99.90;;;;;;4994089;28;20203;-76
2023/07/10 03:12:30;;;;;;;3.55;0.40;;;18.70;99.90;;;;;;4997411;28;20208;-77
2023/07/10 03:15:01;;;;;;;1.80;0.60;;;18.80;99.90;;;;;;4994691;28;20219;-77
2023/07/10 03:17:32;;;;;;;2.05;0.70;;;18.90;99.90;;;;;;4993014;28;20205;-77
2023/07/10 03:20:03;;;;;;;1.10;0.60;;;19.00;99.90;;;;;;5002928;28;20208;-76
2023/07/10 03:22:34;;;;;;;1.23;0.50;;;19.00;99.90;;;;;;4994910;28;20196;-77
2023/07/10 03:25:08;;;;;;;1.85;0.63;;;19.10;99.90;;;;;;4994768;28;20207;-77
2023/07/10 03:27:39;;;;;;;0.98;0.68;;;19.10;99.90;;;;;;4975840;28;20755;-76
2023/07/10 03:30:11;;;;;;;1.00;0.50;;;19.20;99.90;;;;;;4993685;28;20202;-77
2023/07/10 03:32:42;;;;;;;2.20;0.55;;;19.10;99.90;;;;;;4995462;28;20207;-77
2023/07/10 03:35:13;;;;;;;2.35;0.70;;;19.20;99.90;;;;;;4993438;28;20220;-76
2023/07/10 03:37:44;;;;;;;0.40;0.40;;;19.10;99.90;;;;;;4994386;28;20203;-76
2023/07/10 03:40:18;;;;;;;2.63;0.60;;;19.10;99.90;;;;;;4995346;28;20192;-78
2023/07/10 03:42:49;;;;;;;0.98;0.43;;;19.00;99.90;;;;;;4995167;28;20200;-78
2023/07/10 03:45:21;;;;;;;0.68;0.50;;;19.00;99.90;;;;;;4993483;28;20569;-76
2023/07/10 03:47:52;;;;;;;0.60;0.40;;;19.10;99.90;;;;;;4994906;28;20192;-76
2023/07/10 03:50:23;;;;;;;1.65;0.75;;;19.20;99.90;;;;;;4991621;28;20225;-77
2023/07/10 03:52:54;;;;;;;1.08;0.73;;;19.20;99.90;;;;;;4990959;28;20227;-77
2023/07/10 03:55:27;;;;;;;1.05;0.45;;;19.30;99.90;;;;;;4992989;28;20306;-79
2023/07/10 03:57:58;;;;;;;0.63;0.40;;;19.30;99.90;;;;;;4994574;28;20199;-77
2023/07/10 04:00:30;;;;;;;1.10;0.70;;;19.40;99.90;;;;;;4993998;28;20243;-76
2023/07/10 04:03:01;;;;;;;3.22;0.40;;;19.50;99.90;;;;;;4994052;28;20196;-77
2023/07/10 04:05:32;;;;;;;1.65;0.50;;;19.40;99.90;;;;;;4993500;28;20698;-77
2023/07/10 04:08:03;;;;;;;2.58;0.50;;;19.40;99.90;;;;;;4993392;28;20210;-76
2023/07/10 04:10:36;;;;;;;1.67;0.40;;;19.50;99.90;;;;;;4994550;28;20200;-77
2023/07/10 04:13:07;;;;;;;1.25;0.40;;;19.50;99.90;;;;;;4994756;28;20194;-76
2023/07/10 04:15:38;;;;;;;0.57;0.35;;;19.60;99.90;;;;;;4994775;28;20219;-78
2023/07/10 04:18:09;;;;;;;0.60;0.30;;;19.60;99.90;;;;;;4994045;28;20666;-76
2023/07/10 04:20:40;;;;;;;2.22;0.38;;;19.50;99.90;;;;;;4990380;28;20314;-75
2023/07/10 04:23:11;;;;;;;2.50;1.00;;;19.60;99.90;;;;;;4982051;28;20682;-76
2023/07/10 04:25:45;;;;;;;0.43;0.40;;;19.60;99.90;;;;;;4991775;28;20208;-75
2023/07/10 04:28:16;;;;;;;0.55;0.35;;;19.60;99.90;;;;;;4992616;28;20202;-76
2023/07/10 04:30:48;;;;;;;1.35;0.50;;;19.70;99.90;;;;;;4994324;28;20240;-76
2023/07/10 04:33:19;;;;;;;1.00;0.40;;;19.70;99.90;;;;;;4992777;28;20219;-75
2023/07/10 04:35:56;;;;;;;1.05;0.40;;;19.60;99.90;;;;;;4994007;28;20192;-76
2023/07/10 04:38:28;;;;;;;0.88;0.40;;;19.50;99.90;;;;;;4994044;28;20226;-77
2023/07/10 04:41:03;;;;;;;1.83;0.40;;;19.40;99.90;;;;;;4984183;28;20206;-76
2023/07/10 04:43:35;;;;;;;0.70;0.30;;;19.40;99.90;;;;;;4982853;28;20199;-77
2023/07/10 04:46:08;;;;;;;3.17;0.43;;;19.30;99.90;;;;;;4990835;28;20205;-77
2023/07/10 04:48:39;;;;;;;1.10;0.40;;;19.40;99.90;;;;;;4992764;28;20191;-77
2023/07/10 04:51:12;;;;;;;0.47;0.30;;;19.40;99.90;;;;;;4993649;28;20235;-77
2023/07/10 04:53:43;;;;;;;3.10;0.40;;;19.40;99.90;;;;;;4991427;28;20223;-77
2023/07/10 04:56:17;;;;;;;0.90;0.22;;;19.40;99.90;;;;;;4994075;28;20202;-77
2023/07/10 04:58:56;;;;;;;0.80;0.50;;;19.40;99.90;;;;;;4993268;28;20194;-76
2023/07/10 05:01:28;;;;;;;1.70;0.40;;;19.50;99.90;;;;;;4989240;28;20601;-76
2023/07/10 05:04:00;;;;;;;1.10;0.38;;;19.50;99.90;;;;;;4991085;28;20622;-77
2023/07/10 05:06:31;;;;;;;1.42;0.40;;;19.50;99.90;;;;;;4982847;28;20195;-76
2023/07/10 05:09:02;;;;;;;0.93;0.47;;;19.50;99.90;;;;;;4993695;28;20200;-77
2023/07/10 05:11:36;;;;;;;0.70;0.43;;;19.40;99.90;;;;;;4992870;28;20238;-76
2023/07/10 05:14:08;;;;;;;1.25;0.40;;;19.50;99.90;;;;;;4996247;28;20575;-77
2023/07/10 05:16:39;;;;;;;1.55;0.50;;;19.50;99.90;;;;;;4996577;28;20192;-77
2023/07/10 05:19:10;;;;;;;1.55;0.50;;;19.50;99.90;;;;;;4995831;28;20199;-76
2023/07/10 05:21:41;;;;;;;1.70;0.57;;;19.50;99.90;;;;;;4994200;28;20196;-76
2023/07/10 05:24:12;;;;;;;4.32;0.45;;;19.50;99.90;;;;;;4995486;28;20659;-76
2023/07/10 05:26:45;;;;;;;0.85;0.38;;;19.60;99.90;;;;;;4995706;28;20195;-77
2023/07/10 05:29:16;;;;;;;1.35;0.52;;;19.60;99.90;;;;;;4993972;28;20203;-76
2023/07/10 05:31:47;;;;;;;1.80;0.45;;;19.60;99.90;;;;;;4997106;28;20221;-76
2023/07/10 05:34:22;;;;;;;0.47;0.30;;;19.60;99.90;;;;;;4995560;28;20298;-76
2023/07/10 05:36:54;;;;;;;0.60;0.40;;;19.60;99.90;;;;;;4995824;28;20202;-76
2023/07/10 05:39:25;;;;;;;2.55;0.40;;;19.60;99.90;;;;;;4997062;28;20199;-76
2023/07/10 05:41:58;;;;;;;0.38;0.22;;;19.60;99.90;;;;;;4997100;28;20222;-76
2023/07/10 05:44:29;;;;;;;1.85;0.50;;;19.50;99.90;;;;;;4996910;28;20674;-77
2023/07/10 05:47:00;;;;;;;2.35;0.47;;;19.60;99.90;;;;;;4993793;28;20215;-76
2023/07/10 05:49:31;;;;;;;1.83;0.50;;;19.50;99.90;;;;;;4992784;28;20211;-76
2023/07/10 05:52:02;;;;;;;0.90;0.50;;;19.50;99.90;;;;;;4995521;28;20303;-77
2023/07/10 05:54:34;;;;;;;0.93;0.50;;;19.40;99.90;;;;;;4994952;28;20219;-76
2023/07/10 05:57:07;;;;;;;1.45;0.50;;;19.40;99.90;;;;;;4992969;28;20196;-76
2023/07/10 05:59:38;;;;;;;1.50;0.60;;;19.30;99.90;;;;;;4995928;28;20199;-77
2023/07/10 06:02:11;;;;;;;1.75;0.60;;;19.30;99.90;;;;;;4993427;28;20195;-76
2023/07/10 06:04:42;;;;;;;0.98;0.47;;;19.30;99.90;;;;;;4987197;28;20207;-77
2023/07/10 06:07:13;;;;;;;1.30;0.40;;;19.20;99.90;;;;;;4992686;28;20191;-77
2023/07/10 06:09:44;;;;;;;1.20;0.60;;;19.20;99.90;;;;;;4995874;28;20565;-77
2023/07/10 06:12:17;;;;;;;1.42;0.50;;;19.20;99.90;;;;;;4995065;28;20207;-77
2023/07/10 06:14:49;;;;;;;0.98;0.50;;;19.10;99.90;;;;;;4993651;28;20242;-76
2023/07/10 06:17:20;;;;;;;1.33;0.50;;;19.10;99.90;;;;;;4994665;28;20627;-77
2023/07/10 06:19:51;;;;;;;1.15;0.40;;;19.10;99.90;;;;;;4995221;28;20199;-77
2023/07/10 06:22:22;;;;;;;2.92;0.60;;;19.00;99.90;;;;;;4995383;28;20648;-77
2023/07/10 06:24:53;;;;;;;1.38;0.40;;;19.00;99.90;;;;;;4994031;28;20726;-77
2023/07/10 06:27:26;;;;;;;1.33;0.55;;;19.00;99.90;;;;;;4995468;28;20201;-77
2023/07/10 06:29:58;;;;;;;1.27;0.40;;;18.90;99.90;;;;;;4994563;28;20676;-77
2023/07/10 06:32:30;;;;;;;0.75;0.40;;;18.90;99.90;;;;;;4993302;28;20206;-76
2023/07/10 06:35:02;;;;;;;1.08;0.65;;;18.80;99.90;;;;;;4995299;28;20698;-77
2023/07/10 06:37:33;;;;;;;1.98;0.50;;;18.70;99.90;;;;;;4994629;28;20199;-77
2023/07/10 06:40:12;;;;;;;2.10;0.50;;;18.60;99.90;;;;;;4995383;28;20659;-77
2023/07/10 06:42:45;;;;;;;4.53;0.90;;;18.60;99.90;;;;;;4995115;28;20200;-77
2023/07/10 06:45:17;;;;;;;2.78;0.50;;;18.50;99.90;;;;;;4995431;28;20199;-77
2023/07/10 06:47:49;;;;;;;0.85;0.52;;;18.40;99.90;;;;;;4996038;28;20651;-77
2023/07/10 06:50:20;;;;;;;3.15;0.60;;;18.30;99.90;;;;;;4992825;28;20246;-77
2023/07/10 06:52:51;;;;;;;1.85;0.65;;;18.20;99.90;;;;;;4987707;28;20257;-77
2023/07/10 06:55:23;;;;;;;1.38;0.40;;;18.10;99.90;;;;;;4994827;28;20698;-77
2023/07/10 06:57:56;;;;;;;1.13;0.57;;;18.00;99.90;;;;;;4994334;28;20201;-77
2023/07/10 07:00:27;;;;;;;1.33;0.50;;;17.90;99.90;;;;;;4993345;28;20239;-78
2023/07/10 07:02:58;;;;;;;0.90;0.60;;;17.80;99.90;;;;;;4995696;28;20204;-76
2023/07/10 07:05:29;;;;;;;1.17;0.90;;;17.70;99.90;;;;;;4994016;28;20200;-77
2023/07/10 07:08:00;;;;;;;1.50;0.90;;;17.70;99.90;;;;;;4991845;28;20207;-77
2023/07/10 07:10:32;;;;;;;2.85;0.70;;;17.60;99.90;;;;;;4992647;28;20196;-77
2023/07/10 07:13:05;;;;;;;2.10;0.55;;;17.50;99.90;;;;;;4988372;28;20210;-77
2023/07/10 07:15:37;;;;;;;0.77;0.70;;;17.40;99.90;;;;;;4988210;28;20294;-77
2023/07/10 07:18:08;;;;;;;0.57;0.50;;;17.30;99.90;;;;;;4992115;28;20207;-77
2023/07/10 07:20:40;;;;;;;1.52;0.60;;;17.20;99.90;;;;;;4991903;28;20200;-75
2023/07/10 07:23:12;;;;;;;1.35;0.50;;;17.20;99.90;;;;;;4991220;28;20671;-77
2023/07/10 07:25:44;;;;;;;1.58;0.73;;;17.00;99.90;;;;;;4992067;28;20203;-77
2023/07/10 07:28:20;;;;;;;1.58;0.68;;;16.90;99.90;;;;;;4989786;28;20191;-76
2023/07/10 07:30:51;;;;;;;1.10;0.73;;;16.80;99.90;;;;;;4991960;28;20655;-77
2023/07/10 07:33:23;;;;;;;2.63;0.80;;;16.70;99.90;;;;;;4981516;28;20202;-77
2023/07/10 07:35:54;;;;;;;0.90;0.77;;;16.70;99.90;;;;;;4990155;28;20231;-77
2023/07/10 07:38:26;;;;;;;1.65;0.70;;;16.60;99.90;;;;;;4993461;28;20677;-77
2023/07/10 07:40:59;;;;;;;1.60;0.60;;;16.60;99.90;;;;;;4993994;28;20205;-77
2023/07/10 07:43:32;;;;;;;0.90;0.60;;;16.50;99.90;;;;;;4989526;28;20203;-77
2023/07/10 07:46:04;;;;;;;1.98;0.70;;;16.40;99.90;;;;;;4994077;28;20218;-76
2023/07/10 07:48:35;;;;;;;2.47;0.70;;;16.40;99.90;;;;;;4991947;28;20250;-76
2023/07/10 07:51:08;;;;;;;2.05;0.75;;;16.30;99.90;;;;;;4994242;28;20569;-76
2023/07/10 07:53:44;;;;;;;1.00;0.60;;;16.20;99.90;;;;;;4992623;28;20223;-75
2023/07/10 07:56:15;;;;;;;1.48;0.70;;;16.20;99.90;;;;;;4993452;28;20219;-74
2023/07/10 07:58:48;;;;;;;1.80;0.95;;;16.10;99.90;;;;;;4993011;28;20200;-77
2023/07/10 08:01:19;;;;;;;1.40;0.80;;;16.00;99.90;;;;;;4990739;28;20246;-75
2023/07/10 08:03:50;;;;;;;1.77;1.10;;;16.00;99.90;;;;;;4992256;28;20388;-76
2023/07/10 08:06:21;;;;;;;2.47;0.93;;;16.00;99.90;;;;;;4992754;28;20199;-77
2023/07/10 08:08:52;;;;;;;1.58;1.00;;;15.90;99.90;;;;;;4994417;28;20198;-78
2023/07/10 08:11:24;;;;;;;1.77;1.10;;;15.90;99.90;;;;;;4990400;28;20697;-77
2023/07/10 08:13:57;;;;;;;3.35;1.20;;;15.90;99.90;;;;;;4982958;28;20741;-75
2023/07/10 08:16:28;;;;;;;1.20;1.10;;;15.80;99.90;;;;;;4994330;28;20230;-78
2023/07/10 08:18:59;;;;;;;3.63;1.40;;;15.80;99.90;;;;;;4994428;28;20286;-77
2023/07/10 08:21:30;;;;;;;2.30;1.05;;;15.70;99.90;;;;;;4990045;28;20222;-77
2023/07/10 08:24:01;;;;;;;1.88;1.20;;;15.70;99.90;;;;;;4994171;28;20203;-77
2023/07/10 08:26:32;;;;;;;1.83;1.10;;;15.70;99.90;;;;;;4993279;28;20209;-77
2023/07/10 08:29:26;;;;;;;2.30;1.20;;;15.70;99.90;;;;;;4994150;28;20207;-76
2023/07/10 08:31:58;;;;;;;2.17;1.30;;;15.60;99.90;;;;;;4994288;28;20206;-76
2023/07/10 08:34:30;;;;;;;1.83;1.20;;;15.60;99.90;;;;;;4994089;28;20204;-77
2023/07/10 08:37:01;;;;;;;1.98;1.30;;;15.60;99.90;;;;;;4994116;28;20223;-76
2023/07/10 08:39:33;;;;;;;3.55;1.40;;;15.50;99.90;;;;;;4993187;28;20210;-76
2023/07/10 08:42:06;;;;;;;4.13;1.45;;;15.40;99.90;;;;;;4987494;28;20210;-77
2023/07/10 08:44:40;;;;;;;2.88;1.67;;;15.30;99.90;;;;;;4991357;28;20203;-75
2023/07/10 08:47:18;;;;;;;1.88;1.30;;;15.10;99.90;;;;;;4992653;28;20214;-74
2023/07/10 08:49:55;;;;;;;2.22;1.52;;;15.00;99.90;;;;;;4993298;28;20246;-76
2023/07/10 08:52:39;;;;;;;4.82;1.60;;;14.90;99.90;;;;;;4990054;28;20572;-76
2023/07/10 08:55:15;;;;;;;3.35;1.50;;;14.80;99.90;;;;;;4988533;28;20648;-76
2023/07/10 08:57:51;;;;;;;2.38;1.70;;;14.80;99.90;;;;;;4987847;28;20202;-77
2023/07/10 09:00:24;;;;;;;2.20;1.60;;;14.70;99.90;;;;;;4992422;28;20234;-77
2023/07/10 09:03:01;;;;;;;4.75;1.90;;;14.60;99.90;;;;;;4991758;28;20544;-76
2023/07/10 09:05:34;;;;;;;3.50;1.80;;;14.60;99.90;;;;;;4990477;28;20206;-76
2023/07/10 09:08:08;;;;;;;3.15;1.90;;;14.50;99.90;;;;;;4991548;28;20199;-76
2023/07/10 09:10:47;;;;;;;2.53;1.60;;;14.50;99.90;;;;;;4985200;28;20191;-76
2023/07/10 09:13:21;;;;;;;2.05;1.40;;;14.40;99.90;;;;;;4992648;28;20199;-78
2023/07/10 09:15:59;;;;;;;2.17;1.40;;;14.40;99.90;;;;;;4992382;28;20276;-76
2023/07/10 09:18:48;;;;;;;3.03;1.50;;;14.40;99.90;;;;;;4989866;28;20663;-77
2023/07/10 09:21:21;;;;;;;2.60;1.50;;;14.40;99.90;;;;;;4990985;28;20199;-75
2023/07/10 09:23:52;;;;;;;2.90;1.50;;;14.40;99.90;;;;;;4984810;28;20671;-77
2023/07/10 09:26:28;;;;;;;2.25;1.52;;;14.30;99.90;;;;;;4992523;28;20221;-76
2023/07/10 09:29:20;;;;;;;2.05;1.48;;;14.30;99.90;;;;;;4990807;28;20199;-76
2023/07/10 09:31:56;;;;;;;2.20;1.40;;;14.30;99.90;;;;;;4984557;28;20195;-75
2023/07/10 09:34:30;;;;;;;1.35;1.25;;;14.30;99.90;;;;;;4993405;28;20199;-76
2023/07/10 09:37:02;;;;;;;2.08;1.50;;;14.30;99.90;;;;;;4993524;28;20223;-75
2023/07/10 09:39:35;;;;;;;5.05;1.60;;;14.30;99.90;;;;;;4991883;28;20559;-75
2023/07/10 09:42:14;;;;;;;2.65;1.65;;;14.30;99.90;;;;;;4993334;28;20204;-76
2023/07/10 09:44:52;;;;;;;2.55;1.50;;;14.30;99.90;;;;;;4993424;28;20254;-76
2023/07/10 09:47:26;;;;;;;3.13;2.10;;;14.30;99.90;;;;;;4991071;28;20210;-76
2023/07/10 09:49:59;;;;;;;3.20;2.08;;;14.20;99.90;;;;;;4993461;28;20648;-77
2023/07/10 09:52:32;;;;;;;5.03;2.17;;;14.20;99.90;;;;;;4992959;28;20219;-76
2023/07/10 09:55:06;;;;;;;3.08;2.10;;;14.10;99.90;;;;;;4991003;28;20200;-76
2023/07/10 09:57:52;;;;;;;3.70;1.75;;;14.10;99.90;;;;;;4993093;28;20199;-76
2023/07/10 10:00:24;;;;;;;1.92;1.63;;;14.10;99.90;;;;;;4995974;28;20231;-76
2023/07/10 10:03:02;;;;;;;3.78;1.80;;;14.00;99.90;;;;;;4996901;28;20227;-77
2023/07/10 10:05:34;;;;;;;3.35;1.77;;;14.00;99.90;;;;;;4996511;28;20199;-76
2023/07/10 10:08:13;;;;;;;2.50;1.98;;;14.00;99.90;;;;;;4996756;28;20204;-76
2023/07/10 10:10:45;;;;;;;3.08;2.10;;;13.90;99.90;;;;;;4996824;28;20196;-76
2023/07/10 10:13:23;;;;;;;4.15;2.05;;;13.90;99.90;;;;;;4994750;28;20200;-77
2023/07/10 10:16:03;;;;;;;4.45;1.40;;;13.90;99.90;;;;;;4996024;28;20219;-76
2023/07/10 10:18:45;;;;;;;2.30;1.23;;;13.80;99.90;;;;;;4996563;28;20202;-76
2023/07/10 10:21:19;;;;;;;3.05;1.40;;;13.70;99.90;;;;;;4987316;28;20202;-77
2023/07/10 10:23:52;;;;;;;1.90;1.30;;;13.70;99.90;;;;;;4995725;28;20670;-76
2023/07/10 10:26:36;;;;;;;2.28;1.38;;;13.70;99.90;;;;;;4995316;28;20207;-76
2023/07/10 10:29:21;;;;;;;1.70;1.33;;;13.60;99.90;;;;;;4987175;28;20670;-77
2023/07/10 10:31:57;;;;;;;1.55;1.02;;;13.60;99.90;;;;;;4986048;28;20266;-76
2023/07/10 10:34:38;;;;;;;1.90;1.08;;;13.60;99.90;;;;;;4994143;28;20205;-75
2023/07/10 10:37:23;;;;;;;2.28;0.98;;;13.50;99.90;;;;;;4994536;28;20702;-77
2023/07/10 10:40:00;;;;;;;1.45;0.88;;;13.50;99.90;;;;;;4992810;28;20200;-76
2023/07/10 10:42:38;;;;;;;1.67;0.77;;;13.50;99.90;;;;;;4994261;28;20204;-76
2023/07/10 10:45:17;;;;;;;1.42;0.75;;;13.50;99.90;;;;;;4990117;28;20199;-77
2023/07/10 10:47:59;;;;;;;1.02;0.77;;;13.50;99.90;;;;;;4995257;28;20210;-76
2023/07/10 10:50:46;;;;;;;1.27;0.80;;;13.40;99.90;;;;;;4993505;28;20679;-77
2023/07/10 10:53:33;;;;;;;0.82;0.73;;;13.40;99.90;;;;;;4990362;28;20692;-78
2023/07/10 10:56:31;;;;;;;1.10;0.80;;;13.40;99.90;;;;;;4992539;28;20211;-77
2023/07/10 10:59:19;;;;;;;1.02;0.82;;;13.30;99.90;;;;;;4989259;28;20562;-77
2023/07/10 11:01:57;;;;;;;1.30;0.98;;;13.30;99.90;;;;;;4994936;28;20571;-77
2023/07/10 11:04:35;;;;;;;1.65;0.80;;;13.30;99.90;;;;;;4996191;28;20192;-77
2023/07/10 11:07:12;;;;;;;1.77;0.80;;;13.20;99.90;;;;;;4993166;28;20191;-77
2023/07/10 11:09:52;;;;;;;1.38;0.85;;;13.10;99.90;;;;;;4995773;28;20574;-77
2023/07/10 11:12:26;;;;;;;1.15;0.80;;;13.00;99.90;;;;;;4995788;28;20210;-78
2023/07/10 11:15:02;;;;;;;1.35;1.00;;;13.00;99.90;;;;;;4995920;28;20202;-77
2023/07/10 11:17:33;;;;;;;1.40;0.88;;;12.90;99.90;;;;;;4992940;28;20302;-77
2023/07/10 11:20:05;;;;;;;1.25;1.10;;;12.80;99.90;;;;;;4995071;28;20287;-77
2023/07/10 11:22:38;;;;;;;2.22;1.13;;;12.70;99.90;;;;;;4995657;28;20239;-77
2023/07/10 11:25:37;;;;;;;4.15;1.60;;;12.60;99.90;;;;;;4995972;28;20223;-76
2023/07/10 11:28:22;;;;;;;2.50;1.40;;;12.50;99.90;;;;;;4995439;28;20222;-76
2023/07/10 11:31:16;;;;;;;2.95;1.80;;;12.40;99.90;;;;;;4995726;28;20211;-76
2023/07/10 11:33:51;;;;;;;1.90;1.52;;;12.40;99.90;;;;;;4994466;28;20200;-77
2023/07/10 11:36:41;;;;;;;3.05;1.77;;;12.30;99.90;;;;;;4994737;28;20608;-77
2023/07/10 11:39:23;;;;;;;2.58;1.77;;;12.20;99.90;;;;;;4995680;28;20199;-76
2023/07/10 11:42:18;;;;;;;2.55;1.80;;;12.10;99.90;;;;;;4995524;28;20191;-76
2023/07/10 11:45:01;;;;;;;2.60;1.92;;;12.10;99.90;;;;;;4995499;28;20195;-78
2023/07/10 11:47:36;;;;;;;4.13;2.47;;;12.00;99.90;;;;;;4992944;28;20319;-77
2023/07/10 11:50:19;;;;;;;4.60;2.42;;;11.90;99.90;;;;;;4975839;28;20239;-77
2023/07/10 11:53:08;;;;;;;4.05;2.00;;;11.90;99.90;;;;;;4976150;28;20224;-77
2023/07/10 11:56:00;;;;;;;3.28;1.83;;;11.80;99.90;;;;;;4991806;28;20666;-78
2023/07/10 11:58:33;;;;;;;3.72;2.35;;;11.70;99.90;;;;;;4995021;28;20246;-78
2023/07/10 12:01:21;;;;;;;3.50;2.10;;;11.70;99.90;;;;;;4990869;28;20249;-77
2023/07/10 12:03:54;;;;;;;2.20;1.80;;;11.70;99.90;;;;;;4985570;28;20195;-78
2023/07/10 12:06:27;;;;;;;2.08;1.67;;;11.60;99.90;;;;;;4993133;28;20204;-77
2023/07/10 12:09:07;;;;;;;3.92;2.10;;;11.60;99.90;;;;;;4994817;28;20202;-77
2023/07/10 12:11:42;;;;;;;3.42;2.00;;;11.60;99.90;;;;;;4994800;28;20196;-77
2023/07/10 12:14:17;;;;;;;2.75;1.90;;;11.50;99.90;;;;;;4992318;28;20290;-76
2023/07/10 12:16:53;;;;;;;3.63;1.85;;;11.50;99.90;;;;;;4989924;28;20219;-78
2023/07/10 12:19:28;;;;;;;3.67;1.70;;;11.40;99.90;;;;;;4993381;28;20684;-77
2023/07/10 12:22:03;;;;;;;3.05;1.77;;;11.40;99.90;;;;;;4992492;28;20187;-77
2023/07/10 12:24:34;;;;;;;3.05;1.55;;;11.40;99.90;;;;;;4992954;28;20198;-77
2023/07/10 12:27:08;;;;;;;3.38;1.73;;;11.40;99.90;;;;;;4993492;28;20208;-77
2023/07/10 12:29:40;;;;;;;2.67;1.67;;;11.40;99.90;;;;;;4989708;28;20199;-77
2023/07/10 12:32:16;;;;;;;3.22;1.70;;;11.50;99.90;;;;;;4991126;28;20214;-78
2023/07/10 12:34:51;;;;;;;2.60;1.38;;;11.50;99.90;;;;;;4993840;28;20206;-77
2023/07/10 12:37:22;;;;;;;1.75;1.35;;;11.50;99.90;;;;;;4991626;28;20226;-77
2023/07/10 12:39:55;;;;;;;2.10;1.30;;;11.50;99.90;;;;;;4992760;28;20219;-77
2023/07/10 12:42:39;;;;;;;1.85;1.20;;;11.50;99.90;;;;;;4980546;28;20287;-77
2023/07/10 12:45:17;;;;;;;2.40;1.30;;;11.50;99.90;;;;;;4991808;28;20210;-77
2023/07/10 12:47:53;;;;;;;2.95;1.20;;;11.40;99.90;;;;;;4992746;28;20208;-78
2023/07/10 12:50:34;;;;;;;1.45;0.98;;;11.40;99.90;;;;;;4993286;28;20229;-78
2023/07/10 12:53:08;;;;;;;1.00;0.90;;;11.40;99.90;;;;;;4994139;28;20227;-78
2023/07/10 12:55:41;;;;;;;1.42;1.13;;;11.40;99.90;;;;;;4993156;28;20683;-78
2023/07/10 12:58:17;;;;;;;2.25;1.15;;;11.30;99.90;;;;;;4992814;28;20223;-78
2023/07/10 13:01:03;;;;;;;1.75;0.98;;;11.30;99.90;;;;;;4991041;28;20691;-76
2023/07/10 13:03:36;;;;;;;2.15;0.80;;;11.30;99.90;;;;;;4990836;28;20210;-77
2023/07/10 13:06:09;;;;;;;2.35;1.42;;;11.30;99.90;;;;;;4991887;28;20286;-77
2023/07/10 13:08:43;;;;;;;1.58;1.05;;;11.30;99.90;;;;;;4993092;28;20196;-77
2023/07/10 13:11:23;;;;;;;1.70;1.10;;;11.30;99.90;;;;;;4993105;28;20215;-77
2023/07/10 13:13:57;;;;;;;1.00;0.90;;;11.40;99.90;;;;;;4991511;28;20202;-77
2023/07/10 13:16:28;;;;;;;1.88;0.90;;;11.40;99.90;;;;;;4991962;28;20215;-77
2023/07/10 13:19:00;;;;;;;1.48;1.00;;;11.40;99.90;;;;;;4990964;28;20200;-77
2023/07/10 13:21:31;;;;;;;1.40;0.90;;;11.40;99.90;;;;;;4993055;28;20196;-77
2023/07/10 13:24:02;;;;;;;1.48;1.10;;;11.30;99.90;;;;;;4992712;28;20195;-77